createdAt,value
2023-01-13T00:01:24.169Z,26.48
2023-01-13T00:03:55.939Z,27.00
2023-01-13T00:06:29.254Z,34.85
2023-01-13T00:08:58.801Z,30.35
2023-01-13T00:11:28.441Z,31.80
2023-01-13T00:16:27.405Z,26.95
2023-01-13T00:18:59.154Z,34.35
2023-01-13T00:21:28.473Z,33.50
2023-01-13T00:23:57.275Z,24.50
2023-01-13T00:26:27.096Z,29.42
2023-01-13T00:29:00.506Z,30.10
2023-01-13T00:31:30.743Z,34.70
2023-01-13T00:34:00.385Z,20.90
2023-01-13T00:36:42.829Z,26.70
2023-01-13T00:39:30.979Z,30.38
2023-01-13T00:42:17.801Z,35.33
2023-01-13T00:44:46.598Z,30.13
2023-01-13T00:47:15.184Z,28.95
2023-01-13T00:49:50.438Z,32.92
2023-01-13T00:52:24.089Z,28.23
2023-01-13T00:54:58.924Z,29.73
2023-01-13T00:57:36.585Z,25.33
2023-01-13T01:00:13.348Z,30.33
2023-01-13T01:05:41.948Z,32.78
2023-01-13T01:08:14.669Z,29.42
2023-01-13T01:10:44.641Z,29.35
2023-01-13T01:13:21.363Z,21.45
2023-01-13T01:16:06.799Z,39.80
2023-01-13T01:18:48.412Z,39.42
2023-01-13T01:21:25.669Z,29.63
2023-01-13T01:23:57.793Z,36.33
2023-01-13T01:26:30.344Z,39.90
2023-01-13T01:29:00.826Z,35.30
2023-01-13T01:31:32.122Z,40.45
2023-01-13T01:34:00.479Z,35.88
2023-01-13T01:36:30.985Z,31.63
2023-01-13T01:39:01.132Z,39.20
2023-01-13T01:41:33.375Z,45.15
2023-01-13T01:44:20.185Z,31.27
2023-01-13T01:46:47.851Z,29.60
2023-01-13T01:49:20.884Z,33.85
2023-01-13T01:52:00.827Z,28.50
2023-01-13T01:54:37.250Z,37.85
2023-01-13T01:57:08.439Z,35.03
2023-01-13T01:59:38.777Z,30.40
2023-01-13T02:02:09.102Z,33.25
2023-01-13T02:04:41.597Z,37.22
2023-01-13T02:07:36.932Z,31.60
2023-01-13T02:10:20.397Z,27.33
2023-01-13T02:16:18.849Z,28.33
2023-01-13T02:18:55.779Z,33.08
2023-01-13T02:21:48.303Z,46.03
2023-01-13T02:24:54.921Z,44.75
2023-01-13T02:30:53.028Z,23.30
2023-01-13T02:33:29.372Z,43.05
2023-01-13T02:35:56.977Z,42.28
2023-01-13T02:38:29.579Z,35.58
2023-01-13T02:41:45.140Z,29.67
2023-01-13T02:44:13.751Z,37.13
2023-01-13T02:46:50.184Z,41.67
2023-01-13T02:49:22.488Z,30.40
2023-01-13T02:51:53.114Z,48.47
2023-01-13T02:54:25.110Z,32.47
2023-01-13T02:56:56.416Z,35.35
2023-01-13T02:59:28.702Z,32.05
2023-01-13T03:01:59.066Z,44.92
2023-01-13T03:04:47.127Z,36.47
2023-01-13T03:07:47.418Z,44.05
2023-01-13T03:10:21.322Z,37.72
2023-01-13T03:12:53.522Z,39.03
2023-01-13T03:15:27.795Z,39.88
2023-01-13T03:18:17.049Z,29.63
2023-01-13T03:20:50.718Z,32.88
2023-01-13T03:23:22.955Z,34.85
2023-01-13T03:26:07.379Z,34.65
2023-01-13T03:28:37.707Z,39.83
2023-01-13T03:31:07.486Z,30.15
2023-01-13T03:33:37.449Z,32.72
2023-01-13T03:36:08.012Z,26.77
2023-01-13T03:38:40.139Z,25.42
2023-01-13T03:41:09.566Z,24.25
2023-01-13T03:44:08.911Z,38.40
2023-01-13T03:46:48.434Z,41.35
2023-01-13T03:49:17.985Z,26.25
2023-01-13T03:51:47.974Z,29.50
2023-01-13T03:54:17.399Z,23.95
2023-01-13T03:56:49.193Z,18.02
2023-01-13T03:59:22.227Z,28.08
2023-01-13T04:01:53.908Z,23.83
2023-01-13T04:04:23.447Z,24.65
2023-01-13T04:06:53.705Z,21.70
2023-01-13T04:09:21.190Z,31.15
2023-01-13T04:11:52.657Z,26.30
2023-01-13T04:14:20.916Z,17.08
2023-01-13T04:16:48.278Z,19.95
2023-01-13T04:19:15.577Z,18.05
2023-01-13T04:21:42.884Z,21.65
2023-01-13T04:24:10.259Z,25.77
2023-01-13T04:26:37.520Z,17.30
2023-01-13T04:29:04.916Z,13.20
2023-01-13T04:31:33.266Z,24.38
2023-01-13T04:34:01.145Z,17.90
2023-01-13T04:36:28.408Z,20.85
2023-01-13T04:38:55.939Z,16.60
2023-01-13T04:41:23.106Z,15.93
2023-01-13T04:43:50.337Z,13.02
2023-01-13T04:46:17.599Z,18.13
2023-01-13T04:48:44.881Z,21.13
2023-01-13T04:51:12.552Z,23.05
2023-01-13T04:53:40.201Z,14.85
2023-01-13T04:56:07.609Z,21.52
2023-01-13T04:58:36.808Z,17.63
2023-01-13T05:01:13.473Z,15.63
2023-01-13T05:03:48.460Z,15.05
2023-01-13T05:06:21.629Z,15.63
2023-01-13T05:09:00.016Z,21.42
2023-01-13T05:11:49.812Z,16.25
2023-01-13T05:15:00.374Z,19.58
2023-01-13T05:18:01.523Z,13.88
2023-01-13T05:20:38.713Z,12.75
2023-01-13T05:23:43.849Z,18.75
2023-01-13T05:26:16.765Z,15.98
2023-01-13T05:28:48.799Z,19.48
2023-01-13T05:31:20.656Z,8.95
2023-01-13T05:33:56.029Z,17.70
2023-01-13T05:36:23.414Z,22.02
2023-01-13T05:38:51.991Z,20.10
2023-01-13T05:41:37.561Z,13.43
2023-01-13T05:44:04.941Z,21.52
2023-01-13T05:46:33.952Z,17.85
2023-01-13T05:49:02.701Z,22.15
2023-01-13T05:51:31.688Z,20.98
2023-01-13T05:53:59.303Z,14.73
2023-01-13T05:56:27.817Z,15.45
2023-01-13T05:59:05.597Z,19.42
2023-01-13T06:01:47.508Z,19.60
2023-01-13T06:04:16.714Z,20.65
2023-01-13T06:09:22.552Z,17.08
2023-01-13T06:12:04.703Z,17.50
2023-01-13T06:14:41.023Z,21.35
2023-01-13T06:17:13.361Z,19.23
2023-01-13T06:19:45.101Z,27.15
2023-01-13T06:22:34.540Z,18.20
2023-01-13T06:25:06.679Z,20.08
2023-01-13T06:27:50.945Z,17.10
2023-01-13T06:30:24.101Z,20.98
2023-01-13T06:32:57.099Z,17.17
2023-01-13T06:35:29.163Z,19.67
2023-01-13T06:37:58.357Z,14.63
2023-01-13T06:40:27.214Z,21.52
2023-01-13T06:43:17.323Z,18.38
2023-01-13T06:45:47.461Z,22.35
2023-01-13T06:50:49.576Z,18.88
2023-01-13T06:53:19.078Z,19.90
2023-01-13T06:55:50.566Z,20.30
2023-01-13T06:58:18.158Z,29.05
2023-01-13T07:00:55.118Z,19.80
2023-01-13T07:03:22.560Z,17.83
2023-01-13T07:05:53.824Z,26.73
2023-01-13T07:08:21.454Z,15.60
2023-01-13T07:10:48.672Z,23.13
2023-01-13T07:13:34.755Z,22.08
2023-01-13T07:16:03.451Z,21.48
2023-01-13T07:18:31.831Z,22.75
2023-01-13T07:21:03.446Z,26.47
2023-01-13T07:23:31.911Z,19.73
2023-01-13T07:26:01.584Z,15.00
2023-01-13T07:28:43.031Z,18.63
2023-01-13T07:31:19.787Z,20.73
2023-01-13T07:33:49.345Z,26.10
2023-01-13T07:36:18.077Z,29.50
2023-01-13T07:38:59.340Z,23.77
2023-01-13T07:41:54.683Z,22.98
2023-01-13T07:44:23.795Z,18.92
2023-01-13T07:47:23.044Z,20.17
2023-01-13T07:50:10.456Z,20.60
2023-01-13T07:52:42.222Z,26.15
2023-01-13T07:55:11.641Z,22.85
2023-01-13T07:57:39.956Z,21.30
2023-01-13T08:00:10.488Z,19.70
2023-01-13T08:02:41.075Z,18.38
2023-01-13T08:05:09.551Z,15.85
2023-01-13T08:07:40.454Z,22.60
2023-01-13T08:10:17.880Z,19.63
2023-01-13T08:13:06.266Z,16.00
2023-01-13T08:15:36.605Z,22.45
2023-01-13T08:18:10.790Z,18.98
2023-01-13T08:20:41.809Z,20.52
2023-01-13T08:23:09.521Z,22.17
2023-01-13T08:25:38.300Z,25.27
2023-01-13T08:28:06.539Z,25.60
2023-01-13T08:30:34.245Z,19.85
2023-01-13T08:33:02.233Z,23.48
2023-01-13T08:35:29.536Z,21.75
2023-01-13T08:37:58.001Z,24.98
2023-01-13T08:40:25.352Z,20.87
2023-01-13T08:42:53.860Z,28.02
2023-01-13T08:45:21.126Z,23.47
2023-01-13T08:47:48.369Z,30.27
2023-01-13T08:50:15.791Z,22.30
2023-01-13T08:52:43.378Z,19.67
2023-01-13T08:55:11.741Z,24.67
2023-01-13T08:57:40.542Z,20.97
2023-01-13T09:02:39.220Z,30.13
2023-01-13T09:05:08.614Z,27.05
2023-01-13T09:07:38.906Z,15.23
2023-01-13T09:10:12.554Z,22.88
2023-01-13T09:13:02.639Z,25.40
2023-01-13T09:15:32.521Z,25.27
2023-01-13T09:20:38.852Z,26.90
2023-01-13T09:23:10.617Z,34.53
2023-01-13T09:25:42.817Z,24.98
2023-01-13T09:28:11.728Z,31.80
2023-01-13T09:30:41.484Z,31.42
2023-01-13T09:33:30.328Z,20.17
2023-01-13T09:36:02.009Z,25.75
2023-01-13T09:38:29.748Z,17.38
2023-01-13T09:40:58.213Z,26.40
2023-01-13T09:43:55.871Z,18.58
2023-01-13T09:46:49.364Z,27.25
2023-01-13T09:49:38.134Z,24.67
2023-01-13T09:52:19.509Z,25.52
2023-01-13T09:55:05.586Z,14.95
2023-01-13T09:57:38.940Z,23.35
2023-01-13T10:00:26.209Z,24.92
2023-01-13T10:02:59.737Z,21.38
2023-01-13T10:05:47.311Z,19.08
2023-01-13T10:08:33.970Z,26.30
2023-01-13T10:11:31.671Z,15.70
2023-01-13T10:14:12.186Z,19.38
2023-01-13T10:16:57.587Z,22.33
2023-01-13T10:19:40.294Z,19.55
2023-01-13T10:22:37.633Z,16.67
2023-01-13T10:25:05.137Z,22.30
2023-01-13T10:27:38.029Z,20.27
2023-01-13T10:30:31.965Z,19.83
2023-01-13T10:33:01.470Z,10.43
2023-01-13T10:35:51.888Z,14.38
2023-01-13T10:38:23.098Z,26.17
2023-01-13T10:41:06.784Z,20.95
2023-01-13T10:43:59.843Z,21.35
2023-01-13T10:46:28.112Z,19.38
2023-01-13T10:49:03.401Z,16.92
2023-01-13T10:51:34.799Z,15.70
2023-01-13T10:54:05.295Z,16.20
2023-01-13T10:56:34.719Z,20.45
2023-01-13T10:59:32.713Z,18.20
2023-01-13T11:02:19.853Z,17.92
2023-01-13T11:04:54.674Z,17.40
2023-01-13T11:07:53.947Z,17.98
2023-01-13T11:10:32.981Z,21.75
2023-01-13T11:13:11.089Z,15.30
2023-01-13T11:16:03.564Z,15.52
2023-01-13T11:19:02.264Z,18.60
2023-01-13T11:21:32.499Z,18.80
2023-01-13T11:24:15.184Z,19.10
2023-01-13T11:26:46.796Z,15.73
2023-01-13T11:29:41.333Z,21.85
2023-01-13T11:32:14.244Z,16.23
2023-01-13T11:34:42.741Z,27.15
2023-01-13T11:37:11.568Z,19.13
2023-01-13T11:39:38.790Z,23.67
2023-01-13T11:42:22.443Z,17.92
2023-01-13T11:44:51.246Z,15.82
2023-01-13T11:47:22.114Z,14.32
2023-01-13T11:49:49.393Z,7.93
2023-01-13T11:52:33.840Z,15.43
2023-01-13T11:55:16.178Z,12.45
2023-01-13T11:57:52.360Z,14.68
2023-01-13T12:00:46.117Z,20.42
2023-01-13T12:03:13.328Z,14.63
2023-01-13T12:05:43.838Z,17.88
2023-01-13T12:08:30.466Z,10.00
2023-01-13T12:11:56.955Z,14.75
2023-01-13T12:14:43.111Z,15.27
2023-01-13T12:17:16.524Z,14.18
2023-01-13T12:19:50.033Z,13.30
2023-01-13T12:22:21.525Z,15.57
2023-01-13T12:24:51.779Z,13.30
2023-01-13T12:27:23.243Z,20.83
2023-01-13T12:29:52.294Z,18.02
2023-01-13T12:32:21.811Z,19.52
2023-01-13T12:34:49.031Z,18.25
2023-01-13T12:37:22.209Z,14.48
2023-01-13T12:40:03.788Z,11.75
2023-01-13T12:43:02.110Z,22.88
2023-01-13T12:45:30.930Z,12.50
2023-01-13T12:47:58.999Z,15.57
2023-01-13T12:50:37.385Z,12.75
2023-01-13T12:53:23.292Z,11.03
2023-01-13T12:55:53.621Z,17.13
2023-01-13T12:58:30.323Z,10.85
2023-01-13T13:00:59.257Z,11.10
2023-01-13T13:03:33.694Z,16.10
2023-01-13T13:06:10.813Z,13.40
2023-01-13T13:08:40.877Z,14.73
2023-01-13T13:11:32.738Z,19.48
2023-01-13T13:14:04.033Z,19.60
2023-01-13T13:16:31.383Z,18.27
2023-01-13T13:19:17.702Z,12.07
2023-01-13T13:22:03.559Z,13.48
2023-01-13T13:24:30.829Z,16.73
2023-01-13T13:26:58.190Z,9.07
2023-01-13T13:29:40.694Z,15.82
2023-01-13T13:32:30.874Z,14.23
2023-01-13T13:35:04.310Z,11.65
2023-01-13T13:38:08.412Z,17.17
2023-01-13T13:40:59.229Z,14.07
2023-01-13T13:43:46.160Z,11.32
2023-01-13T13:46:46.148Z,16.60
2023-01-13T13:49:14.397Z,11.43
2023-01-13T13:52:00.713Z,16.70
2023-01-13T13:54:28.457Z,19.60
2023-01-13T13:56:55.897Z,12.45
2023-01-13T13:59:28.123Z,16.58
2023-01-13T14:02:01.760Z,14.13
2023-01-13T14:04:31.173Z,11.80
2023-01-13T14:06:58.559Z,15.25
2023-01-13T14:09:26.734Z,13.65
2023-01-13T14:12:02.226Z,17.52
2023-01-13T14:14:29.768Z,16.65
2023-01-13T14:16:57.179Z,14.50
2023-01-13T14:19:35.204Z,13.75
2023-01-13T14:22:03.251Z,13.25
2023-01-13T14:24:31.318Z,17.63
2023-01-13T14:27:09.295Z,18.52
2023-01-13T14:29:37.023Z,15.90
2023-01-13T14:32:05.239Z,12.60
2023-01-13T14:34:33.517Z,14.05
2023-01-13T14:37:02.840Z,14.60
2023-01-13T14:41:57.255Z,18.02
2023-01-13T14:44:29.764Z,16.42
2023-01-13T14:46:58.608Z,16.98
2023-01-13T14:49:37.672Z,19.90
2023-01-13T14:52:13.106Z,19.90
2023-01-13T14:54:52.353Z,18.35
2023-01-13T14:57:25.918Z,15.38
2023-01-13T14:59:57.447Z,16.50
2023-01-13T15:02:30.759Z,12.27
2023-01-13T15:04:59.298Z,20.60
2023-01-13T15:07:28.006Z,9.93
2023-01-13T15:09:56.864Z,19.52
2023-01-13T15:12:29.925Z,13.40
2023-01-13T15:14:57.647Z,13.40
2023-01-13T15:17:24.900Z,17.67
2023-01-13T15:19:53.925Z,15.25
2023-01-13T15:22:21.150Z,17.70
2023-01-13T15:24:48.512Z,12.05
2023-01-13T15:27:18.784Z,21.70
2023-01-13T15:29:46.111Z,15.90
2023-01-13T15:32:20.910Z,12.57
2023-01-13T15:34:48.685Z,12.02
2023-01-13T15:37:17.066Z,20.23
2023-01-13T15:39:44.340Z,19.20
2023-01-13T15:42:31.548Z,16.05
2023-01-13T15:45:17.427Z,18.02
2023-01-13T15:47:45.383Z,12.98
2023-01-13T15:50:16.611Z,15.90
2023-01-13T15:52:44.046Z,28.98
2023-01-13T15:55:11.586Z,14.85
2023-01-13T15:57:39.657Z,15.52
2023-01-13T16:00:18.240Z,16.45
2023-01-13T16:02:45.447Z,16.63
2023-01-13T16:05:12.924Z,13.35
2023-01-13T16:07:40.199Z,13.55
2023-01-13T16:10:09.361Z,18.13
2023-01-13T16:12:37.595Z,14.02
2023-01-13T16:15:06.350Z,14.18
2023-01-13T16:17:34.288Z,18.65
2023-01-13T16:20:01.660Z,18.45
2023-01-13T16:22:29.353Z,20.88
2023-01-13T16:24:56.878Z,13.45
2023-01-13T16:27:25.509Z,9.95
2023-01-13T16:29:53.092Z,9.48
2023-01-13T16:32:21.101Z,15.18
2023-01-13T16:34:48.611Z,9.90
2023-01-13T16:37:23.094Z,17.60
2023-01-13T16:39:50.822Z,17.92
2023-01-13T16:42:18.129Z,25.70
2023-01-13T16:44:47.712Z,8.65
2023-01-13T16:47:16.477Z,10.65
2023-01-13T16:49:43.956Z,13.75
2023-01-13T16:52:11.490Z,13.93
2023-01-13T16:54:38.924Z,10.90
2023-01-13T16:57:07.729Z,9.23
2023-01-13T16:59:34.998Z,12.65
2023-01-13T17:02:02.441Z,11.27
2023-01-13T17:04:29.715Z,8.70
2023-01-13T17:07:16.393Z,7.13
2023-01-13T17:09:43.672Z,7.45
2023-01-13T17:12:11.564Z,6.72
2023-01-13T17:14:38.786Z,6.65
2023-01-13T17:17:06.087Z,13.75
2023-01-13T17:19:33.372Z,9.70
2023-01-13T17:22:01.019Z,15.77
2023-01-13T17:24:30.869Z,8.50
2023-01-13T17:26:58.723Z,13.80
2023-01-13T17:29:27.697Z,16.20
2023-01-13T17:31:55.029Z,13.63
2023-01-13T17:34:22.724Z,11.18
2023-01-13T17:36:50.137Z,13.60
2023-01-13T17:39:22.352Z,13.10
2023-01-13T17:41:50.495Z,15.45
2023-01-13T17:44:19.042Z,9.77
2023-01-13T17:46:46.695Z,8.50
2023-01-13T17:49:14.989Z,15.73
2023-01-13T17:51:42.281Z,9.27
2023-01-13T17:54:13.334Z,11.73
2023-01-13T17:56:41.079Z,17.75
2023-01-13T17:59:10.322Z,17.45
2023-01-13T18:01:38.848Z,11.73
2023-01-13T18:04:06.980Z,11.68
2023-01-13T18:06:34.642Z,10.70
2023-01-13T18:09:02.000Z,9.90
2023-01-13T18:11:29.318Z,14.45
2023-01-13T18:13:57.175Z,16.95
2023-01-13T18:16:25.514Z,13.68
2023-01-13T18:19:15.890Z,13.15
2023-01-13T18:22:01.787Z,11.88
2023-01-13T18:24:47.578Z,11.30
2023-01-13T18:27:22.414Z,9.57
2023-01-13T18:29:50.912Z,7.18
2023-01-13T18:32:18.242Z,10.97
2023-01-13T18:34:45.787Z,13.02
2023-01-13T18:37:13.869Z,9.50
2023-01-13T18:39:41.404Z,10.07
2023-01-13T18:42:28.850Z,12.07
2023-01-13T18:44:57.963Z,12.88
2023-01-13T18:47:25.930Z,7.75
2023-01-13T18:49:53.187Z,12.32
2023-01-13T18:52:20.453Z,15.15
2023-01-13T18:54:47.903Z,9.93
2023-01-13T18:57:15.869Z,13.70
2023-01-13T18:59:43.182Z,15.20
2023-01-13T19:02:20.734Z,11.98
2023-01-13T19:04:48.359Z,12.18
2023-01-13T19:07:23.686Z,18.70
2023-01-13T19:09:51.065Z,11.55
2023-01-13T19:12:25.988Z,21.60
2023-01-13T19:14:56.503Z,10.93
2023-01-13T19:17:24.767Z,18.73
2023-01-13T19:19:53.793Z,16.33
2023-01-13T19:22:23.283Z,16.08
2023-01-13T19:24:51.417Z,22.67
2023-01-13T19:27:19.513Z,19.75
2023-01-13T19:29:51.992Z,10.15
2023-01-13T19:32:23.283Z,12.85
2023-01-13T19:34:51.283Z,15.40
2023-01-13T19:37:19.236Z,13.35
2023-01-13T19:39:46.670Z,14.77
2023-01-13T19:42:46.568Z,14.07
2023-01-13T19:45:27.035Z,7.72
2023-01-13T19:47:54.698Z,16.92
2023-01-13T19:50:21.967Z,11.90
2023-01-13T19:52:49.252Z,16.08
2023-01-13T19:55:16.581Z,12.40
2023-01-13T19:57:43.856Z,13.38
2023-01-13T20:00:13.675Z,16.23
2023-01-13T20:02:47.616Z,6.22
2023-01-13T20:05:18.133Z,15.15
2023-01-13T20:07:45.531Z,11.80
2023-01-13T20:10:13.533Z,11.18
2023-01-13T20:12:41.785Z,15.95
2023-01-13T20:15:09.725Z,13.82
2023-01-13T20:17:37.133Z,14.23
2023-01-13T20:20:04.746Z,13.43
2023-01-13T20:22:32.089Z,16.23
2023-01-13T20:24:59.372Z,10.50
2023-01-13T20:27:26.692Z,13.95
2023-01-13T20:29:53.942Z,13.10
2023-01-13T20:32:21.186Z,8.80
2023-01-13T20:34:48.410Z,10.45
2023-01-13T20:37:15.690Z,14.60
2023-01-13T20:39:45.802Z,12.95
2023-01-13T20:42:29.405Z,10.32
2023-01-13T20:44:57.154Z,14.82
2023-01-13T20:47:24.508Z,22.77
2023-01-13T20:49:52.092Z,15.75
2023-01-13T20:52:19.426Z,19.17
2023-01-13T20:54:46.672Z,19.15
2023-01-13T20:57:13.965Z,15.80
2023-01-13T20:59:41.409Z,16.23
2023-01-13T21:02:12.966Z,20.77
2023-01-13T21:04:40.441Z,16.30
2023-01-13T21:07:08.084Z,18.27
2023-01-13T21:09:35.370Z,20.00
2023-01-13T21:12:21.572Z,21.33
2023-01-13T21:15:07.457Z,16.67
2023-01-13T21:17:53.653Z,19.85
2023-01-13T21:20:20.873Z,18.08
2023-01-13T21:22:49.168Z,13.77
2023-01-13T21:25:17.034Z,14.45
2023-01-13T21:27:44.436Z,12.63
2023-01-13T21:30:15.347Z,14.73
2023-01-13T21:32:43.420Z,14.75
2023-01-13T21:35:10.909Z,11.93
2023-01-13T21:37:39.032Z,11.63
2023-01-13T21:40:07.090Z,19.35
2023-01-13T21:42:52.935Z,11.90
2023-01-13T21:45:39.166Z,13.63
2023-01-13T21:48:07.165Z,14.23
2023-01-13T21:50:34.424Z,17.98
2023-01-13T21:53:01.707Z,15.20
2023-01-13T21:55:29.241Z,14.63
2023-01-13T21:58:01.413Z,15.40
2023-01-13T22:00:30.233Z,16.95
2023-01-13T22:02:59.542Z,9.70
2023-01-13T22:07:54.028Z,17.08
2023-01-13T22:10:22.796Z,16.10
2023-01-13T22:12:53.333Z,14.40
2023-01-13T22:15:20.584Z,19.73
2023-01-13T22:17:51.112Z,8.85
2023-01-13T22:20:19.140Z,19.20
2023-01-13T22:22:46.776Z,19.02
2023-01-13T22:25:14.949Z,13.82
2023-01-13T22:27:44.341Z,14.77
2023-01-13T22:32:39.261Z,15.40
2023-01-13T22:35:07.846Z,15.50
2023-01-13T22:37:35.578Z,14.30
2023-01-13T22:40:03.122Z,17.70
2023-01-13T22:42:30.437Z,16.80
2023-01-13T22:44:57.701Z,11.90
2023-01-13T22:47:25.144Z,12.52
2023-01-13T22:49:52.463Z,23.15
2023-01-13T22:52:19.753Z,19.42
2023-01-13T22:54:47.050Z,9.05
2023-01-13T22:57:14.402Z,21.40
2023-01-13T22:59:41.704Z,13.20
2023-01-13T23:02:08.998Z,17.98
2023-01-13T23:04:36.281Z,10.27
2023-01-13T23:07:03.591Z,18.27
2023-01-13T23:09:30.925Z,14.68
2023-01-13T23:11:59.305Z,17.13
2023-01-13T23:14:26.648Z,12.43
2023-01-13T23:16:54.026Z,14.88
2023-01-13T23:19:23.649Z,14.32
2023-01-13T23:21:50.983Z,24.60
2023-01-13T23:24:18.230Z,11.05
2023-01-13T23:26:45.461Z,15.48
2023-01-13T23:29:13.356Z,13.68
2023-01-13T23:31:41.030Z,10.23
2023-01-13T23:34:08.501Z,10.70
2023-01-13T23:36:40.788Z,22.98
2023-01-13T23:39:08.356Z,21.73
2023-01-13T23:41:35.685Z,16.95
2023-01-13T23:44:02.982Z,20.02
2023-01-13T23:46:31.119Z,16.10
2023-01-13T23:48:58.384Z,12.15
2023-01-13T23:51:27.349Z,16.75
2023-01-13T23:53:54.673Z,16.65
2023-01-13T23:56:23.359Z,14.93
2023-01-13T23:58:50.706Z,18.50
